Sault Sainte Marie, Ontario

11:31 AM EDT on 三月 25, 2017 (GMT -0400)
BMCC on Lake Superior | | Change Station
発令中の注意報: Special Weather Statement

高度 645 ft 46.45 °N, 84.61 °W | Updated 11 seconds ago

Partly Cloudy
所により曇
33.4 °F
体感気温 26 °F
8.4
風 変数 風 から 東北東
Gusts 11.2 Mph

今日
高い -- | 低 -- °F
--% 降水確率
昨日
高い -- | 低 -- °F
Precip. -- インチ
気圧 30.41 インチ
視程 15.0 マイル
わずか 2800 ft
わずか 4200 ft
わずか 20000 ft
体感気温(寒さ) 26 °F
露点温度 27 °F
湿度 78%
降水 0.00 インチ
積雪深 利用不可。
7:30 AM 7:57 PM
二十六夜, 8% visible
METAR CYAM 251500Z 07012KT 15SM FEW028 FEW042 FEW200 M01/M05 A3037 RMK CF1SC1CI1 CF TR SC TR CI TR SLP297
気圧 30.41 インチ
視程 15.0 マイル
わずか 2800 ft
わずか 4200 ft
わずか 20000 ft
体感気温(寒さ) 26 °F
露点温度 27 °F
湿度 78%
降水 0.00 インチ
積雪深 利用不可。
7:30 AM 7:57 PM
二十六夜, 8% visible
METAR CYAM 251500Z 07012KT 15SM FEW028 FEW042 FEW200 M01/M05 A3037 RMK CF1SC1CI1 CF TR SC TR CI TR SLP297

Get Severe Weather Alerts

Thanks for signing up!

Be on the lookout for a verification email in your inbox.

You'll start receiving the daily forecast at 8 AM.

×

10-Day Weather Forecast

Almanac

天文

Mar. 25, 2017 入り
実時間
常用薄明
航海薄明
天文薄明
可視光の長さ
可照時間
Tomorrow will be .
, % of the Moon is Illuminated

今日の極値

Country Highs Country Lows

Community

WunderPhotos

Upload Photos

1,962,540 写真がアップロードされました!

WunderBlog® & News

Nearby

空気品質

  空気品質 大気質指数 汚染物質
Not available.

積雪深

Station Depth 高度

地震活動

Distance Mag. Time & Date
Minimum magnitude displayed is 2.5.

地震活動

Distance Mag. Time & Date
Minimum magnitude displayed is 2.5.

沿岸の水温

地名 気温

Stations

最寄りの気象観測所

観測所位置 温度 体感気温(寒さ) 露点温度 湿度 Precip. 高度 更新日時 タイプする
                   

Watches & Warnings

Special Weather Statement
Issued: Environment Canada
Special Weather Statement issued by Environment.  01:10 AM EDT Saturday 25 March 2017.
Freezing rain expected Sunday.

Periods of freezing rain are expected to develop Sunday morning and persist for much of the day Sunday. Temperatures will slowly rise through the day which will change the freezing rain over to rain by Sunday evening. 

Surfaces such as highways, roads, walkways and parking lots may become icy and slippery.

###

Please continue to monitor alerts and forecasts issued by Environment Canada. To report severe weather, send an email to ec.cpio-tempetes-ospc-storms.ec@canada.ca or tweet reports using #ONStorm.
expires_epoch:1490461821